Time;durP1;ratioP1;P1;durP2;ratioP2;P2;SDS_P1;SDS_P2;PMS_P1;PMS_P2;Temp;Humidity;BMP_temperature;BMP_pressure;BME280_temperature;BME280_humidity;BME280_pressure;Samples;Min_cycle;Max_cycle;Signal;HPM_P1;HPM_P2
2020/12/27 00:01:06;;;;;;;9.08;4.55;;;;;;;-5.20;80.80;97068.09;1737028;83;21134;-89
2020/12/27 00:03:33;;;;;;;6.20;3.87;;;;;;;-5.20;80.77;97070.19;1737008;83;21118;-89
2020/12/27 00:06:00;;;;;;;7.30;3.98;;;;;;;-5.20;80.78;97062.92;1740912;81;21158;-89
2020/12/27 00:08:27;;;;;;;9.20;4.55;;;;;;;-5.21;80.73;97066.00;1744948;81;21142;-89
2020/12/27 00:10:53;;;;;;;7.95;3.35;;;;;;;-5.20;80.76;97065.51;1744866;82;21529;-89
2020/12/27 00:13:20;;;;;;;5.80;3.05;;;;;;;-5.19;80.76;97063.24;1745172;82;21138;-89
2020/12/27 00:15:47;;;;;;;9.38;3.52;;;;;;;-5.21;80.74;97058.70;1744878;82;21501;-89
2020/12/27 00:18:14;;;;;;;9.55;4.17;;;;;;;-5.23;80.70;97054.19;1744903;81;21141;-89
2020/12/27 00:20:41;;;;;;;8.85;3.77;;;;;;;-5.26;80.74;97049.36;1744783;82;21137;-89
2020/12/27 00:23:08;;;;;;;10.50;4.58;;;;;;;-5.27;80.79;97041.30;1744975;82;21482;-89
2020/12/27 00:25:39;;;;;;;7.62;4.25;;;;;;;-5.28;80.75;97047.44;1744995;82;21130;-89
2020/12/27 00:28:06;;;;;;;8.98;4.10;;;;;;;-5.33;80.95;97031.16;1745179;81;21159;-89
2020/12/27 00:30:34;;;;;;;13.43;4.67;;;;;;;-5.30;81.17;97032.11;1745333;82;21425;-89
2020/12/27 00:33:01;;;;;;;11.05;5.28;;;;;;;-5.26;81.17;97036.44;1745157;82;21165;-88
2020/12/27 00:35:28;;;;;;;8.83;4.05;;;;;;;-5.27;81.14;97033.05;1745211;82;21142;-89
2020/12/27 00:37:54;;;;;;;9.58;4.40;;;;;;;-5.23;81.25;97036.10;1745118;81;21170;-89
2020/12/27 00:40:21;;;;;;;8.65;4.45;;;;;;;-5.22;81.19;97030.77;1745019;82;21138;-89
2020/12/27 00:42:48;;;;;;;19.17;7.50;;;;;;;-5.23;81.04;97035.61;1745025;82;21130;-89
2020/12/27 00:45:15;;;;;;;15.72;6.28;;;;;;;-5.28;80.90;97031.45;1745038;81;21162;-88
2020/12/27 00:47:44;;;;;;;20.25;8.73;;;;;;;-5.28;80.85;97030.16;1745061;82;21146;-89
2020/12/27 00:50:11;;;;;;;15.13;6.85;;;;;;;-5.35;80.69;97030.98;1744844;81;21142;-89
2020/12/27 00:52:38;;;;;;;10.82;4.92;;;;;;;-5.35;80.78;97030.49;1745005;82;21509;-89
2020/12/27 00:55:05;;;;;;;9.40;4.33;;;;;;;-5.35;80.91;97023.23;1745195;82;21142;-89
2020/12/27 00:57:32;;;;;;;8.83;4.25;;;;;;;-5.29;80.95;97019.98;1745346;82;21146;-89
2020/12/27 01:00:01;;;;;;;10.08;5.15;;;;;;;-5.24;81.02;97024.16;1745134;81;21507;-89
2020/12/27 01:02:28;;;;;;;8.53;4.30;;;;;;;-5.22;80.90;97028.66;1745052;82;21150;-89
2020/12/27 01:04:55;;;;;;;6.47;3.83;;;;;;;-5.22;80.91;97018.33;1745077;82;21106;-89
2020/12/27 01:07:21;;;;;;;10.35;4.90;;;;;;;-5.18;81.03;97019.63;1744959;81;21130;-88
2020/12/27 01:09:48;;;;;;;8.28;4.53;;;;;;;-5.04;81.20;97023.27;1745304;81;21150;-89
2020/12/27 01:12:15;;;;;;;8.83;4.30;;;;;;;-4.98;81.08;97025.97;1745021;82;21517;-89
2020/12/27 01:14:42;;;;;;;6.83;4.03;;;;;;;-4.98;80.97;97022.09;1745045;82;21111;-89
2020/12/27 01:17:09;;;;;;;8.85;4.37;;;;;;;-4.96;80.98;97018.84;1744975;82;21114;-89
2020/12/27 01:19:36;;;;;;;7.70;4.37;;;;;;;-4.87;81.12;97007.48;1744997;81;21158;-89
2020/12/27 01:22:03;;;;;;;8.48;4.70;;;;;;;-4.80;81.07;97010.17;1745022;82;21526;-89
2020/12/27 01:24:30;;;;;;;7.60;4.40;;;;;;;-4.75;81.01;96999.34;1745006;82;21529;-89
2020/12/27 01:26:58;;;;;;;7.75;4.12;;;;;;;-4.71;80.97;97000.59;1745094;82;21129;-89
2020/12/27 01:29:25;;;;;;;8.70;5.10;;;;;;;-4.68;80.88;97001.53;1745004;81;21154;-89
2020/12/27 01:31:52;;;;;;;10.72;5.40;;;;;;;-4.65;80.82;96992.13;1744917;82;21131;-89
2020/12/27 01:34:18;;;;;;;8.25;4.58;;;;;;;-4.68;80.68;96998.45;1745069;82;21107;-89
2020/12/27 01:36:45;;;;;;;9.63;5.47;;;;;;;-4.71;80.55;96994.12;1744948;82;21133;-88
2020/12/27 01:39:12;;;;;;;8.78;4.85;;;;;;;-4.76;80.43;96988.67;1745073;81;21160;-89
2020/12/27 01:41:39;;;;;;;10.38;5.05;;;;;;;-4.79;80.47;96986.72;1744999;82;21138;-89
2020/12/27 01:44:10;;;;;;;10.75;5.97;;;;;;;-4.80;80.48;96981.23;1745014;82;21134;-89
2020/12/27 01:46:40;;;;;;;7.92;4.50;;;;;;;-4.81;80.50;96977.05;1744988;82;21130;-89
2020/12/27 01:49:09;;;;;;;9.80;5.25;;;;;;;-4.83;80.55;96973.83;1745123;81;21521;-89
2020/12/27 01:51:38;;;;;;;10.70;5.90;;;;;;;-4.77;80.69;96962.50;1744958;82;21190;-89
2020/12/27 01:54:07;;;;;;;9.63;5.55;;;;;;;-4.77;80.68;96959.42;1745223;82;21114;-88
2020/12/27 01:56:40;;;;;;;10.30;5.28;;;;;;;-4.76;80.69;96953.27;1745094;82;21157;-89
2020/12/27 01:59:19;;;;;;;8.13;4.65;;;;;;;-4.77;80.68;96951.66;1745284;81;21146;-89
2020/12/27 02:01:46;;;;;;;12.15;5.45;;;;;;;-4.77;80.63;96956.84;1744124;82;21130;-89
2020/12/27 02:04:13;;;;;;;11.25;5.85;;;;;;;-4.77;80.63;96945.69;1744962;82;21126;-89
2020/12/27 02:06:41;;;;;;;10.53;6.08;;;;;;;-4.75;80.66;96937.27;1756383;81;21170;-89
2020/12/27 02:09:12;;;;;;;9.30;4.58;;;;;;;-4.76;80.69;96927.41;1766810;80;21146;-89
2020/12/27 02:11:39;;;;;;;11.15;5.92;;;;;;;-4.76;80.73;96924.02;1766535;81;21170;-89
2020/12/27 02:14:07;;;;;;;8.95;5.30;;;;;;;-4.72;80.80;96921.39;1766612;81;21143;-89
2020/12/27 02:16:34;;;;;;;8.18;4.55;;;;;;;-4.69;80.72;96921.84;1766555;81;21135;-89
2020/12/27 02:19:06;;;;;;;12.47;6.00;;;;;;;-4.62;80.66;96917.59;1766650;80;21192;-89
2020/12/27 02:21:34;;;;;;;5.10;2.98;;;;;;;-4.62;80.50;96915.00;1766560;81;21136;-89
2020/12/27 02:24:01;;;;;;;6.58;3.75;;;;;;;-4.64;80.40;96909.20;1766800;81;21166;-89
2020/12/27 02:26:29;;;;;;;13.53;6.25;;;;;;;-4.63;80.33;96904.84;1766743;81;21190;-89
2020/12/27 02:28:58;;;;;;;12.33;5.53;;;;;;;-4.64;80.33;96900.64;1766756;80;21146;-89
2020/12/27 02:31:27;;;;;;;9.60;5.08;;;;;;;-4.68;80.30;96914.88;1766657;81;21155;-89
2020/12/27 02:33:56;;;;;;;7.83;3.70;;;;;;;-4.70;80.30;96904.72;1766687;81;21566;-89
2020/12/27 02:36:24;;;;;;;12.53;5.92;;;;;;;-4.72;80.29;96908.46;1740847;81;21164;-89
2020/12/27 02:38:51;;;;;;;12.58;5.95;;;;;;;-4.75;80.31;96913.50;1766857;80;21181;-88
2020/12/27 02:41:22;;;;;;;9.48;4.90;;;;;;;-4.77;80.34;96906.41;1766658;81;21139;-88
2020/12/27 02:43:49;;;;;;;8.58;5.05;;;;;;;-4.73;80.38;96900.39;1766577;81;21135;-89
2020/12/27 02:46:27;;;;;;;9.10;5.37;;;;;;;-4.71;80.31;96895.84;1766573;81;21116;-88
2020/12/27 02:48:56;;;;;;;11.28;5.87;;;;;;;-4.73;80.23;96894.73;1766504;80;21151;-89
2020/12/27 02:51:25;;;;;;;12.80;6.08;;;;;;;-4.75;80.16;96890.23;1766569;80;21159;-89
2020/12/27 02:53:54;;;;;;;5.33;3.30;;;;;;;-4.84;80.03;96895.14;1766839;80;21154;-89
2020/12/27 02:56:25;;;;;;;8.78;5.80;;;;;;;-4.92;79.90;96884.39;1766710;80;21151;-89
2020/12/27 02:58:55;;;;;;;8.78;5.03;;;;;;;-4.97;79.97;96885.38;1767310;80;21179;-89
2020/12/27 03:01:22;;;;;;;10.93;4.95;;;;;;;-4.99;80.00;96882.66;1798121;80;21265;-89
2020/12/27 03:03:49;;;;;;;7.78;4.55;;;;;;;-5.02;80.00;96879.14;1797882;80;21269;-89
2020/12/27 03:06:18;;;;;;;8.18;4.92;;;;;;;-5.06;79.97;96874.81;1792650;80;21154;-89
2020/12/27 03:08:54;;;;;;;8.35;4.20;;;;;;;-5.06;79.98;96874.81;1775737;81;21459;-89
2020/12/27 03:11:15;;;;;;;8.68;4.08;;;;;;;-5.08;79.91;96861.23;1774405;81;21506;-89
2020/12/27 03:13:42;;;;;;;8.73;5.22;;;;;;;-5.11;79.91;96852.05;1775518;81;21130;-89
2020/12/27 03:16:09;;;;;;;9.25;4.17;;;;;;;-5.11;79.88;96856.41;1775800;81;21138;-89
2020/12/27 03:18:36;;;;;;;7.05;4.15;;;;;;;-5.10;79.92;96854.14;1775501;81;21115;-89
2020/12/27 03:21:03;;;;;;;8.73;4.83;;;;;;;-5.11;79.84;96852.54;1747788;81;21153;-88
2020/12/27 03:23:30;;;;;;;10.53;4.87;;;;;;;-5.17;79.83;96849.38;1744859;82;21129;-89
2020/12/27 03:25:57;;;;;;;10.50;5.05;;;;;;;-5.29;79.50;96843.00;1744938;82;21142;-89
2020/12/27 03:28:24;;;;;;;9.40;5.00;;;;;;;-5.44;79.62;96837.77;1744966;81;21158;-89
2020/12/27 03:30:51;;;;;;;8.80;4.53;;;;;;;-5.43;79.92;96831.63;1744873;82;21149;-89
2020/12/27 03:33:17;;;;;;;7.00;4.40;;;;;;;-5.40;80.04;96829.50;1744880;82;21150;-89
2020/12/27 03:35:45;;;;;;;9.13;5.12;;;;;;;-5.48;80.01;96823.12;1744946;82;21146;-89
2020/12/27 03:38:11;;;;;;;5.78;3.87;;;;;;;-5.56;80.08;96821.06;1744866;81;21146;-88
2020/12/27 03:40:38;;;;;;;10.82;4.67;;;;;;;-5.60;80.17;96821.10;1745033;81;21137;-89
2020/12/27 03:43:05;;;;;;;7.85;4.37;;;;;;;-5.60;80.37;96827.55;1744945;82;21114;-89
2020/12/27 03:45:32;;;;;;;7.42;4.45;;;;;;;-5.58;80.54;96808.33;1744905;82;21138;-89
2020/12/27 03:47:59;;;;;;;10.03;4.92;;;;;;;-5.53;80.69;96803.44;1744870;81;21154;-89
2020/12/27 03:50:26;;;;;;;7.33;4.25;;;;;;;-5.45;80.71;96798.71;1744842;82;21186;-89
2020/12/27 03:52:53;;;;;;;5.78;3.70;;;;;;;-5.42;80.66;96788.83;1744918;82;21549;-89
2020/12/27 03:55:20;;;;;;;11.53;7.17;;;;;;;-5.44;80.53;96786.91;1745136;81;21182;-89
2020/12/27 03:57:47;;;;;;;9.85;5.05;;;;;;;-5.52;80.42;96786.16;1744892;82;21169;-89
2020/12/27 04:00:15;;;;;;;7.47;4.42;;;;;;;-5.65;80.59;96793.19;1745060;82;21538;-89
2020/12/27 04:02:42;;;;;;;4.42;3.72;;;;;;;-5.72;80.76;96783.25;1745093;82;21146;-89
2020/12/27 04:05:09;;;;;;;4.72;2.87;;;;;;;-5.69;81.30;96777.24;1745101;81;21114;-89
2020/12/27 04:07:36;;;;;;;5.83;3.25;;;;;;;-5.62;81.58;96774.80;1739752;81;21155;-90
2020/12/27 04:10:04;;;;;;;9.70;3.92;;;;;;;-5.55;81.59;96776.18;1737182;81;21632;-89
2020/12/27 04:12:31;;;;;;;4.10;2.65;;;;;;;-5.53;81.59;96763.89;1737074;83;21521;-89
2020/12/27 04:14:58;;;;;;;11.60;5.25;;;;;;;-5.58;81.57;96764.91;1737246;83;21633;-89
2020/12/27 04:17:24;;;;;;;7.05;4.25;;;;;;;-5.61;81.61;96757.52;1737228;83;21636;-89
2020/12/27 04:19:52;;;;;;;7.70;3.75;;;;;;;-5.62;81.75;96763.17;1737100;81;21625;-89
2020/12/27 04:22:18;;;;;;;8.90;4.72;;;;;;;-5.65;81.88;96757.03;1737163;83;21157;-89
2020/12/27 04:24:45;;;;;;;7.10;3.90;;;;;;;-5.64;81.85;96751.38;1737152;83;21304;-89
2020/12/27 04:27:12;;;;;;;7.55;4.92;;;;;;;-5.63;82.01;96751.23;1737328;83;21276;-89
2020/12/27 04:29:39;;;;;;;3.70;2.62;;;;;;;-5.63;81.82;96748.66;1737204;81;21140;-89
2020/12/27 04:32:06;;;;;;;9.18;4.72;;;;;;;-5.67;81.92;96737.05;1737121;83;21149;-89
2020/12/27 04:34:33;;;;;;;6.30;4.37;;;;;;;-5.67;82.00;96737.05;1737136;82;21570;-89
2020/12/27 04:37:01;;;;;;;7.58;4.67;;;;;;;-5.65;82.12;96732.50;1737199;83;21628;-90
2020/12/27 04:39:28;;;;;;;5.75;3.85;;;;;;;-5.66;81.90;96736.06;1737248;81;21118;-89
2020/12/27 04:41:55;;;;;;;8.60;5.20;;;;;;;-5.64;81.94;96728.14;1737102;83;21636;-89
2020/12/27 04:44:23;;;;;;;5.67;3.52;;;;;;;-5.61;81.85;96724.75;1737228;82;21521;-89
2020/12/27 04:46:54;;;;;;;6.53;4.37;;;;;;;-5.63;81.86;96707.34;1737182;83;21159;-89
2020/12/27 04:49:21;;;;;;;7.40;4.95;;;;;;;-5.62;81.83;96715.39;1712180;83;21175;-89
2020/12/27 04:51:49;;;;;;;7.55;4.75;;;;;;;-5.61;81.79;96710.55;1737183;82;21277;-89
2020/12/27 04:54:16;;;;;;;11.53;6.03;;;;;;;-5.65;81.73;96700.23;1737125;83;21261;-89
2020/12/27 04:56:45;;;;;;;7.75;4.42;;;;;;;-5.68;81.74;96705.25;1737218;83;21284;-89
2020/12/27 04:59:12;;;;;;;7.08;4.45;;;;;;;-5.70;81.66;96696.08;1737120;81;21147;-89
2020/12/27 05:01:39;;;;;;;9.45;5.45;;;;;;;-5.74;81.74;96698.22;1737409;83;21296;-89
2020/12/27 05:04:07;;;;;;;11.18;5.70;;;;;;;-5.76;81.78;96698.08;1737306;82;21265;-89
2020/12/27 05:06:37;;;;;;;7.37;4.95;;;;;;;-5.79;81.74;96698.41;1737968;81;21308;-89
2020/12/27 05:09:04;;;;;;;10.48;5.60;;;;;;;-5.81;81.88;96686.16;1745206;81;21563;-89
2020/12/27 05:11:31;;;;;;;9.83;5.10;;;;;;;-5.80;81.79;96682.61;1745027;82;21506;-89
2020/12/27 05:13:59;;;;;;;6.22;4.20;;;;;;;-5.83;81.83;96682.47;1744951;82;21174;-89
2020/12/27 05:16:27;;;;;;;8.58;5.28;;;;;;;-5.76;82.04;96667.91;1745016;82;21157;-89
2020/12/27 05:18:54;;;;;;;9.70;4.60;;;;;;;-5.70;81.98;96674.94;1715863;82;21502;-88
2020/12/27 05:21:26;;;;;;;5.85;3.85;;;;;;;-5.69;81.91;96672.67;1715447;84;21161;-89
2020/12/27 05:23:54;;;;;;;6.60;3.37;;;;;;;-5.68;81.77;96672.18;1715380;84;21142;-89
2020/12/27 05:26:29;;;;;;;6.95;3.12;;;;;;;-5.74;81.63;96675.47;1715424;84;21268;-89
2020/12/27 05:28:56;;;;;;;5.65;3.85;;;;;;;-5.75;81.59;96681.61;1715278;82;21296;-89
2020/12/27 05:31:35;;;;;;;8.13;4.25;;;;;;;-5.76;81.50;96676.14;1715502;84;21288;-89
2020/12/27 05:34:04;;;;;;;7.30;4.15;;;;;;;-5.79;81.36;96668.23;1714763;84;21537;-89
2020/12/27 05:36:34;;;;;;;5.55;3.42;;;;;;;-5.82;81.21;96670.36;1715727;84;21284;-89
2020/12/27 05:39:02;;;;;;;3.95;2.70;;;;;;;-5.87;81.19;96675.25;1715596;82;21325;-89
2020/12/27 05:41:31;;;;;;;8.35;4.10;;;;;;;-5.82;81.22;96663.91;1715394;84;21292;-89
2020/12/27 05:44:03;;;;;;;5.62;3.65;;;;;;;-5.81;81.11;96670.19;1687214;84;21173;-89
2020/12/27 05:46:32;;;;;;;8.33;4.90;;;;;;;-5.79;81.03;96663.06;1715420;84;21146;-89
2020/12/27 05:49:00;;;;;;;9.78;5.30;;;;;;;-5.75;81.00;96666.12;1716868;81;21118;-89
2020/12/27 05:51:29;;;;;;;9.58;4.87;;;;;;;-5.77;80.83;96667.59;1744977;82;21505;-89
2020/12/27 05:53:58;;;;;;;7.33;4.87;;;;;;;-5.82;80.69;96674.23;1744903;82;21138;-89
2020/12/27 05:56:27;;;;;;;7.73;4.53;;;;;;;-5.91;80.58;96666.27;1716048;82;21130;-89
2020/12/27 05:58:57;;;;;;;10.50;5.33;;;;;;;-5.92;80.63;96671.11;1715852;82;21167;-89
2020/12/27 06:01:25;;;;;;;14.60;7.25;;;;;;;-5.94;80.59;96669.20;1745217;82;21154;-89
2020/12/27 06:03:59;;;;;;;13.18;5.90;;;;;;;-6.02;80.55;96675.23;1744914;82;21133;-89
2020/12/27 06:07:04;;;;;;;11.73;7.70;;;;;;;-6.11;80.44;96665.94;1731341;83;21124;-89
2020/12/27 06:10:07;;;;;;;16.75;8.53;;;;;;;-6.20;80.41;96675.98;1736605;81;21146;-88
2020/12/27 06:13:02;;;;;;;15.68;8.33;;;;;;;-6.32;80.37;96667.86;1734179;83;21154;-89
2020/12/27 06:15:36;;;;;;;16.57;8.95;;;;;;;-6.38;80.45;96655.64;1736578;83;21099;-89
2020/12/27 06:18:14;;;;;;;13.60;7.63;;;;;;;-6.38;80.46;96662.08;1744809;81;21103;-89
2020/12/27 06:20:44;;;;;;;11.25;6.53;;;;;;;-6.39;80.39;96660.48;1745099;82;21126;-89
2020/12/27 06:23:13;;;;;;;12.03;5.35;;;;;;;-6.35;80.34;96665.11;1744920;82;21248;-89
2020/12/27 06:25:41;;;;;;;10.43;5.57;;;;;;;-6.25;80.13;96666.19;1744960;82;21155;-89
2020/12/27 06:28:08;;;;;;;14.15;7.80;;;;;;;-6.11;79.87;96656.42;1745224;81;21520;-88
2020/12/27 06:30:43;;;;;;;12.10;6.57;;;;;;;-6.08;79.60;96656.06;1744987;82;21134;-89
2020/12/27 06:33:18;;;;;;;19.63;7.87;;;;;;;-6.08;79.57;96647.03;1744925;82;21265;-89
2020/12/27 06:35:47;;;;;;;9.63;4.87;;;;;;;-6.05;79.46;96638.97;1745017;82;21121;-88
2020/12/27 06:38:18;;;;;;;11.95;6.50;;;;;;;-5.99;79.10;96622.78;1744859;81;21154;-88
2020/12/27 06:40:50;;;;;;;11.25;6.35;;;;;;;-5.93;78.83;96624.34;1741221;82;21142;-88
2020/12/27 06:43:24;;;;;;;7.55;4.08;;;;;;;-5.88;78.96;96627.19;1744272;82;21502;-88
2020/12/27 06:45:53;;;;;;;12.30;6.05;;;;;;;-5.84;78.71;96629.73;1744945;82;21166;-88
2020/12/27 06:48:37;;;;;;;15.03;6.97;;;;;;;-5.80;78.55;96633.55;1745061;81;21142;-89
2020/12/27 06:51:05;;;;;;;16.93;6.62;;;;;;;-5.73;78.49;96637.86;1744503;82;21126;-88
2020/12/27 06:53:45;;;;;;;15.43;7.23;;;;;;;-5.70;78.19;96628.95;1744838;82;21145;-88
2020/12/27 06:56:14;;;;;;;8.13;4.25;;;;;;;-5.73;78.00;96625.44;1745021;82;21123;-88
2020/12/27 06:58:46;;;;;;;13.55;7.22;;;;;;;-5.84;77.95;96610.36;1745023;81;21149;-88
2020/12/27 07:01:17;;;;;;;12.98;7.40;;;;;;;-5.81;77.96;96621.62;1737675;82;21171;-88
2020/12/27 07:03:45;;;;;;;9.25;5.65;;;;;;;-5.84;78.00;96632.30;1745003;82;21196;-88
2020/12/27 07:06:25;;;;;;;15.48;7.40;;;;;;;-5.72;77.78;96629.63;1744962;82;21141;-88
2020/12/27 07:08:57;;;;;;;6.95;3.67;;;;;;;-5.63;77.72;96628.58;1738643;81;21505;-88
2020/12/27 07:11:29;;;;;;;9.88;6.05;;;;;;;-5.61;77.38;96613.70;1736954;82;21533;-88
2020/12/27 07:13:58;;;;;;;14.75;8.10;;;;;;;-5.57;77.20;96629.15;1737095;82;21126;-88
2020/12/27 07:16:36;;;;;;;12.93;7.17;;;;;;;-5.53;77.40;96627.01;1736967;83;21119;-88
2020/12/27 07:19:18;;;;;;;13.03;6.55;;;;;;;-5.26;77.33;96619.94;1871564;76;23326;-87
2020/12/27 07:21:47;;;;;;;14.75;8.60;;;;;;;-4.98;77.05;96619.30;1770180;80;21177;-87
2020/12/27 07:24:22;;;;;;;13.57;7.80;;;;;;;-4.56;76.76;96608.24;1770578;81;21616;-87
2020/12/27 07:26:50;;;;;;;11.70;6.40;;;;;;;-4.11;76.36;96602.39;1770219;81;21817;-87
2020/12/27 07:29:24;;;;;;;13.38;8.05;;;;;;;-3.64;75.31;96604.38;1770459;81;21637;-88
2020/12/27 07:31:53;;;;;;;72.45;21.55;;;;;;;-3.22;75.71;96596.96;1770142;81;21079;-87
2020/12/27 07:34:27;;;;;;;270.55;75.32;;;;;;;-2.75;74.63;96600.55;1753164;81;21478;-88
2020/12/27 07:37:04;;;;;;;46.25;17.12;;;;;;;-2.22;73.42;96596.78;1770211;81;21170;-87
2020/12/27 07:39:59;;;;;;;10.98;7.85;;;;;;;-2.22;73.42;96596.78;1770296;81;21134;-88
2020/12/27 07:42:37;;;;;;;10.13;6.25;;;;;;;-2.14;72.00;96587.48;1770161;81;21158;-88
2020/12/27 07:45:13;;;;;;;23.22;11.93;;;;;;;-2.19;70.54;96587.30;1770344;81;21131;-88
2020/12/27 07:47:42;;;;;;;9.88;5.75;;;;;;;-2.16;71.90;96592.09;1770260;80;21115;-88
2020/12/27 07:50:15;;;;;;;11.60;6.42;;;;;;;-1.92;71.42;96603.20;1770652;79;21147;-88
2020/12/27 07:52:58;;;;;;;13.35;6.55;;;;;;;-1.70;71.19;96607.68;1770459;81;21270;-88
2020/12/27 07:55:29;;;;;;;11.88;6.97;;;;;;;-1.60;70.25;96604.69;1770183;81;21115;-88
2020/12/27 07:58:03;;;;;;;13.70;7.17;;;;;;;-1.50;69.63;96597.28;1770407;81;21297;-88
2020/12/27 08:00:34;;;;;;;13.68;7.28;;;;;;;-1.45;69.48;96587.06;1770074;81;21116;-88
2020/12/27 08:03:07;;;;;;;9.38;5.33;;;;;;;-1.63;68.55;96576.50;1770317;81;21139;-88
2020/12/27 08:05:36;;;;;;;9.10;5.40;;;;;;;-1.62;68.20;96571.10;1770045;81;21132;-88
2020/12/27 08:08:10;;;;;;;8.63;5.17;;;;;;;-1.96;66.56;96559.15;1770160;81;21154;-88
2020/12/27 08:10:39;;;;;;;13.98;7.20;;;;;;;-2.24;66.49;96553.34;1770175;81;21489;-88
2020/12/27 08:13:10;;;;;;;11.12;5.80;;;;;;;-2.50;67.81;96564.48;1770409;81;21138;-88
2020/12/27 08:15:40;;;;;;;9.98;6.33;;;;;;;-2.43;67.90;96562.19;1770245;81;21498;-88
2020/12/27 08:18:11;;;;;;;10.53;6.53;;;;;;;-2.45;68.08;96543.92;1770754;81;21260;-88
2020/12/27 08:20:48;;;;;;;10.48;6.45;;;;;;;-2.49;68.30;96551.31;1771651;79;21523;-88
2020/12/27 08:23:16;;;;;;;15.68;7.95;;;;;;;-2.31;68.88;96549.43;1771007;80;21277;-89
2020/12/27 08:25:44;;;;;;;10.40;6.50;;;;;;;-2.25;68.19;96549.13;1770973;80;21166;-90
2020/12/27 08:28:15;;;;;;;15.18;8.23;;;;;;;-2.14;68.98;96553.73;1771011;80;21265;-89
2020/12/27 08:30:45;;;;;;;7.37;4.92;;;;;;;-2.07;68.43;96554.55;1770640;80;21483;-89
2020/12/27 08:33:19;;;;;;;17.45;8.50;;;;;;;-2.30;66.98;96555.42;1770899;81;21459;-88
2020/12/27 08:35:49;;;;;;;17.67;7.17;;;;;;;-2.33;68.65;96554.53;1770543;80;21122;-88
2020/12/27 08:38:42;;;;;;;11.20;6.42;;;;;;;-2.25;67.77;96553.02;1770639;81;21266;-88
2020/12/27 08:41:24;;;;;;;11.08;6.15;;;;;;;-2.40;67.18;96554.00;1770511;81;21258;-89
2020/12/27 08:44:03;;;;;;;19.17;10.82;;;;;;;-2.63;67.05;96549.69;1770449;80;21139;-89
2020/12/27 08:46:38;;;;;;;6.53;3.37;;;;;;;-2.61;67.57;96542.50;1770482;80;21289;-89
2020/12/27 08:49:23;;;;;;;12.75;6.22;;;;;;;-2.56;66.65;96547.09;1770209;79;21273;-89
2020/12/27 08:51:54;;;;;;;10.93;6.85;;;;;;;-2.63;67.66;96550.19;1770648;81;21119;-89
2020/12/27 08:54:23;;;;;;;10.95;6.75;;;;;;;-2.63;67.98;96541.11;1770558;80;21281;-89
2020/12/27 08:56:50;;;;;;;10.95;6.12;;;;;;;-2.55;67.72;96552.08;1770365;80;21126;-89
2020/12/27 08:59:18;;;;;;;13.08;7.20;;;;;;;-2.50;67.87;96527.66;1770444;80;21281;-89
2020/12/27 09:01:45;;;;;;;10.88;5.87;;;;;;;-2.37;68.49;96537.75;1770417;80;21138;-89
2020/12/27 09:04:20;;;;;;;10.10;6.08;;;;;;;-2.21;68.39;96529.07;1770506;81;21514;-89
2020/12/27 09:06:57;;;;;;;11.63;7.00;;;;;;;-2.07;68.38;96520.78;1770514;80;21254;-89
2020/12/27 09:09:25;;;;;;;11.18;6.67;;;;;;;-2.04;68.29;96516.48;1770442;81;21171;-89
2020/12/27 09:11:53;;;;;;;12.78;6.92;;;;;;;-1.93;68.20;96521.07;1770429;81;21281;-89
2020/12/27 09:14:35;;;;;;;12.20;6.33;;;;;;;-1.81;68.08;96523.36;1770502;80;21486;-89
2020/12/27 09:17:09;;;;;;;10.03;5.90;;;;;;;-1.74;68.15;96523.34;1770452;81;21495;-89
2020/12/27 09:19:36;;;;;;;10.75;4.95;;;;;;;-1.73;67.02;96517.64;1770186;79;21513;-89
2020/12/27 09:22:06;;;;;;;12.03;6.42;;;;;;;-1.67;66.27;96506.45;1769573;81;21146;-89
2020/12/27 09:24:35;;;;;;;11.25;5.50;;;;;;;-1.72;66.64;96494.55;1769989;81;21499;-89
2020/12/27 09:27:10;;;;;;;6.22;3.47;;;;;;;-1.61;66.87;96503.82;1769461;80;21127;-88
2020/12/27 09:29:39;;;;;;;6.08;3.47;;;;;;;-1.58;65.90;96502.61;1769902;81;21140;-90
2020/12/27 09:32:14;;;;;;;8.10;4.83;;;;;;;-1.73;64.82;96481.25;1769587;81;21127;-89
2020/12/27 09:34:42;;;;;;;7.83;4.60;;;;;;;-1.78;65.13;96483.68;1769848;81;21135;-90
2020/12/27 09:37:18;;;;;;;11.38;5.50;;;;;;;-1.73;65.27;96489.05;1769720;81;21115;-89
2020/12/27 09:39:56;;;;;;;12.20;5.25;;;;;;;-1.73;65.34;96469.56;1769626;81;21666;-89
2020/12/27 09:42:29;;;;;;;14.43;7.67;;;;;;;-1.64;66.28;96480.05;1769668;81;21405;-90
2020/12/27 09:44:57;;;;;;;13.08;8.00;;;;;;;-1.44;66.97;96483.88;1769871;81;21444;-89
2020/12/27 09:47:29;;;;;;;17.25;8.63;;;;;;;-1.28;66.41;96470.41;1769616;81;21506;-89
2020/12/27 09:50:09;;;;;;;15.85;8.25;;;;;;;-1.29;65.98;96455.30;1770146;79;21135;-89
2020/12/27 09:52:48;;;;;;;14.83;8.65;;;;;;;-1.19;66.31;96447.06;1769565;81;21586;-89
2020/12/27 09:55:15;;;;;;;20.62;9.70;;;;;;;-0.95;66.43;96442.44;1769825;80;21111;-89
2020/12/27 09:57:42;;;;;;;23.60;12.35;;;;;;;-0.78;66.65;96440.13;1769530;81;21261;-89
2020/12/27 10:00:11;;;;;;;22.32;11.90;;;;;;;-0.67;66.20;96437.36;1769895;80;21160;-90
2020/12/27 10:02:38;;;;;;;22.58;12.25;;;;;;;-0.63;66.38;96439.82;1769608;80;21107;-89
2020/12/27 10:05:05;;;;;;;19.32;10.68;;;;;;;-0.62;66.23;96427.89;1769624;81;21147;-90
2020/12/27 10:07:33;;;;;;;23.22;12.68;;;;;;;-0.70;65.82;96433.37;1769593;81;21138;-90
2020/12/27 10:10:00;;;;;;;22.00;10.98;;;;;;;-0.75;66.32;96421.48;1769666;81;21142;-89
2020/12/27 10:12:27;;;;;;;14.80;7.87;;;;;;;-0.75;64.96;96421.48;1769487;81;21269;-89
2020/12/27 10:14:54;;;;;;;16.70;9.00;;;;;;;-0.75;64.96;96421.48;1769698;81;21506;-89
2020/12/27 10:17:21;;;;;;;16.67;9.55;;;;;;;-0.76;65.17;96408.17;1769649;81;21491;-89
2020/12/27 10:19:50;;;;;;;12.55;7.00;;;;;;;-0.65;65.22;96404.09;1770726;79;21135;-90
2020/12/27 10:22:20;;;;;;;15.65;9.23;;;;;;;-0.47;65.20;96398.13;1770367;80;21280;-89
2020/12/27 10:24:48;;;;;;;13.98;7.72;;;;;;;-0.34;65.59;96391.00;1771057;80;21146;-89
2020/12/27 10:27:15;;;;;;;17.02;9.05;;;;;;;-0.41;64.06;96382.98;1770367;81;21155;-89
2020/12/27 10:29:43;;;;;;;20.45;10.60;;;;;;;-0.51;64.92;96357.41;1770374;80;21528;-89
2020/12/27 10:32:11;;;;;;;21.40;10.78;;;;;;;-0.51;64.95;96364.43;1770312;80;21146;-89
2020/12/27 10:34:38;;;;;;;14.33;8.35;;;;;;;-0.43;64.74;96340.20;1770600;80;21288;-89
2020/12/27 10:37:06;;;;;;;20.32;11.20;;;;;;;-0.38;64.80;96335.16;1770318;80;21107;-89
2020/12/27 10:39:34;;;;;;;23.07;12.25;;;;;;;-0.34;65.26;96319.89;1770585;80;21313;-89
2020/12/27 10:42:01;;;;;;;19.07;10.53;;;;;;;-0.20;65.31;96303.62;1770317;81;21304;-89
2020/12/27 10:44:29;;;;;;;21.05;11.25;;;;;;;-0.11;65.57;96310.14;1770347;81;21309;-89
2020/12/27 10:46:56;;;;;;;29.48;13.78;;;;;;;-0.15;65.02;96296.73;1770377;80;21132;-89
2020/12/27 10:49:24;;;;;;;24.43;11.97;;;;;;;-0.02;64.53;96313.52;1770892;79;21300;-88
2020/12/27 10:51:53;;;;;;;17.87;9.50;;;;;;;-0.03;64.44;96302.80;1770518;80;21605;-88
2020/12/27 10:54:20;;;;;;;19.15;10.63;;;;;;;-0.13;64.52;96282.20;1770375;80;21265;-89
2020/12/27 10:56:48;;;;;;;19.35;10.90;;;;;;;-0.01;64.12;96286.95;1770401;80;21277;-89
2020/12/27 10:59:16;;;;;;;17.35;10.05;;;;;;;0.01;64.60;96271.12;1770304;80;21100;-89
2020/12/27 11:01:47;;;;;;;18.05;9.85;;;;;;;0.03;63.91;96263.36;1770576;80;21288;-88
2020/12/27 11:04:16;;;;;;;17.02;9.40;;;;;;;0.04;64.27;96261.55;1770319;80;21143;-88
2020/12/27 11:06:43;;;;;;;18.85;10.50;;;;;;;0.12;64.61;96265.14;1770595;81;21311;-88
2020/12/27 11:09:11;;;;;;;15.13;8.45;;;;;;;0.26;64.81;96266.55;1770405;81;21143;-89
2020/12/27 11:11:39;;;;;;;20.55;10.48;;;;;;;0.31;64.27;96252.37;1770674;81;21269;-89
2020/12/27 11:14:07;;;;;;;21.42;10.45;;;;;;;0.24;63.70;96255.05;1770268;81;21135;-89
2020/12/27 11:16:35;;;;;;;12.40;7.70;;;;;;;0.08;63.49;96234.83;1770667;81;21150;-88
2020/12/27 11:19:03;;;;;;;16.42;8.90;;;;;;;-0.08;63.64;96241.95;1770794;79;21507;-88
2020/12/27 11:21:30;;;;;;;16.60;9.63;;;;;;;-0.06;63.72;96244.63;1770602;80;21280;-89
2020/12/27 11:23:58;;;;;;;13.00;7.75;;;;;;;-0.06;63.72;96244.63;1770310;80;21277;-89
2020/12/27 11:26:25;;;;;;;17.82;9.98;;;;;;;-0.03;63.60;96236.87;1770670;80;21273;-89
2020/12/27 11:28:52;;;;;;;19.07;9.60;;;;;;;-0.07;64.03;96233.12;1770289;80;21138;-89
2020/12/27 11:31:20;;;;;;;14.10;8.40;;;;;;;-0.07;64.17;96193.53;1770472;80;21498;-89
2020/12/27 11:33:49;;;;;;;15.10;8.35;;;;;;;-0.07;64.17;96193.53;1770613;80;21296;-89
2020/12/27 11:36:17;;;;;;;12.55;7.12;;;;;;;0.12;64.50;96199.98;1770462;80;21479;-89
2020/12/27 11:38:45;;;;;;;14.23;8.08;;;;;;;0.36;64.19;96157.83;1770257;81;21099;-89
2020/12/27 11:41:14;;;;;;;17.45;8.15;;;;;;;0.36;64.19;96157.83;1770367;80;21127;-89